Von / Nach
Hinflug - Rückflug
Erwachsene / Kinder
Promocode
Nächste Ankünfte Flughafen St.Gallen-Altenrhein

ZeitErw.vonFlugInfo
13:5013:56CalviPE569
gelandet
Nächste Abflüge Flughafen St.Gallen-Altenrhein

ZeitGeplantnachFlugInfo
11:1011:13CalviPE568
abgeflogen

Flugplan

Bitte wählen Sie Ihren gewünschten Abflug- und Zielflughafen aus.


Live aus Altenrhein
LIVE
LSZR 091720Z 07005KT CAVOK 26/19 Q1016 NOSIG RMK J
Zeitraffer heute
2020-08-09 00:14:26
LSZR 082150Z AUTO VRB01KT CAVOK 19/16 Q1020
Zeitraffer gestern
2020-08-08 00:14:51
LSZR 072150Z AUTO 21002KT CAVOK 18/15 Q1020

Wien

Ab EUR 119.- pro Strecke.

 

Jetzt buchen

Ibiza

Ab EUR 279.- hin & zurück.

 

Jetzt buchen

Mallorca

Ab EUR 349.- hin & zurück.

 

Jetzt buchen

Pula

Ab EUR 399.- hin & zurück.

 

Jetzt buchen

Sardinien

Ab EUR 299.- hin & zurück.

 

Jetzt buchen

General Aviation

Business & General Aviation LSZR.

 

More information

 

 Shuttlebus


Nutzen Sie unseren

Shuttlebus zwischen Altenrhein

und Dornbirn & Bregenz.

 

Mehr dazu

 

People's Online-Shop


Von der Überraschung an

Bord über Badetücher bis

zum Flugzeugmodell.

 

Mehr dazu


News


Aktuelles von People's

und dem Flughafen

St.Gallen-Altenrhein.

 

Mehr dazu

 

Ad-hoc Charter


Chartern Sie eine unserer

Embraer170 für Ihren eigenen

Anlass oder ACMI-Einsätze.


Mehr dazu

  

 

Teile dein People's-Erlebnis mit uns:

 

#peoplesairline bei Instagram